Koryo Maru 81 — JFFQ — position and weather

sailwx.info

Track history (hours):
 
Tides and Currents Weather Stations Pressure Air Temp Water Temp Dewpoint Dewpoint Depression Visibility Wind Speed Wind Dir Waves Ship Positions

Koryo Maru 81

Last reported at 2018-May-24 07:50 UTC. Time now 2018-Jul-17 22:59 UTC.
Position N 28°09' W 015°26'.
Warning: this ship's position is 54 days out of date.

Length 50 m; draft 4 m.

Type: Fishing. MMSI: 432045000.

Date/timePositionNaut miles runAvg speedWind from/ knotsBaromVisibWave heightAir tempDewpointWater temp
2018-May-24 07:50N 28°09' W 015°26'0 0.0
2018-May-24 07:30N 28°09' W 015°26'0 0.0
2018-May-24 07:00N 28°09' W 015°26'0 0.0
2018-May-24 06:30N 28°09' W 015°26'0 0.0
2018-May-24 06:00N 28°09' W 015°26'1 1.9
2018-May-24 05:30N 28°08' W 015°25'3 6.9
2018-May-24 05:00N 28°05' W 015°22'510.1
2018-May-24 04:30N 28°02' W 015°18'4 7.6
2018-May-24 04:00N 27°60' W 015°15'0 0.7
2018-May-24 03:30N 28°00' W 015°15'1 1.6
2018-May-24 03:00N 27°59' W 015°15'4 7.7
2018-May-24 02:30N 27°55' W 015°15'4 7.6
2018-May-24 02:00N 27°52' W 015°15'4 7.4
2018-May-24 01:30N 27°48' W 015°15'5 9.2
2018-May-24 01:00N 27°44' W 015°17'  
Track history (hours):
 
Tides and Currents Weather Stations Pressure Air Temp Water Temp Dewpoint Dewpoint Depression Visibility Wind Speed Wind Dir Waves Ship Positions

Koryo Maru 81

Last reported at 2018-May-24 07:50 UTC. Time now 2018-Jul-17 22:59 UTC.
Position N 28°09' W 015°26'.
Warning: this ship's position is 54 days out of date.

Length 50 m; draft 4 m.

Type: Fishing. MMSI: 432045000.

Date/timePositionNaut miles runAvg speedWind from/ knotsBaromVisibWave heightAir tempDewpointWater temp
2018-May-24 07:50N 28°09' W 015°26'0 0.0
2018-May-24 07:30N 28°09' W 015°26'0 0.0
2018-May-24 07:00N 28°09' W 015°26'0 0.0
2018-May-24 06:30N 28°09' W 015°26'0 0.0
2018-May-24 06:00N 28°09' W 015°26'1 1.9
2018-May-24 05:30N 28°08' W 015°25'3 6.9
2018-May-24 05:00N 28°05' W 015°22'510.1
2018-May-24 04:30N 28°02' W 015°18'4 7.6
2018-May-24 04:00N 27°60' W 015°15'0 0.7
2018-May-24 03:30N 28°00' W 015°15'1 1.6
2018-May-24 03:00N 27°59' W 015°15'4 7.7
2018-May-24 02:30N 27°55' W 015°15'4 7.6
2018-May-24 02:00N 27°52' W 015°15'4 7.4
2018-May-24 01:30N 27°48' W 015°15'5 9.2
2018-May-24 01:00N 27°44' W 015°17'  

Dump ship's entire track history